Acmar, AL

5:25 AM CDT on August 26, 2016 (GMT -0500)
APRSWXNET | | Change Station

Elev 695 ft 33.59 °N, 86.49 °W | Updated 37 minutes ago

Clear
Clear
73 °F
Feels Like 73 °F
N
0
Wind Variable Wind from NW
Gusts 0.0 mph

Today
High -- | Low -- °F
--% Chance of Precip.
Yesterday
High -- | Low -- °F
Precip. -- in
Pressure 30.06 in
Visibility 10.0 miles
Clouds Clear
Dew Point 71 °F
Humidity 95%
Rainfall in
Snow Depth Not available.
6:16 AM 7:18 PM
Waning Crescent, 36% visible
METAR KBHM 260953Z 00000KT 10SM CLR 24/23 A3009 RMK AO2 SLP180 T02440228
Pressure 30.06 in
Visibility 10.0 miles
Clouds Clear
Dew Point 71 °F
Humidity 95%
Rainfall in
Snow Depth Not available.
6:16 AM 7:18 PM
Waning Crescent, 36% visible
METAR KBHM 260953Z 00000KT 10SM CLR 24/23 A3009 RMK AO2 SLP180 T02440228

10-Day Weather Forecast

Almanac

Astronomy

Aug. 26, 2016 Rise Set
Actual Time
Civil Twilight
Nautical Twilight
Astronomical Twilight
Moon
Length of Visible Light
Length of Day
Tomorrow will be .
, % of the Moon is Illuminated

Today's Extremes

State Highs State Lows

Community

WunderPhotos

Upload Photos

1,935,069 photos uploaded!

WunderBlog® & News

Nearby

Air Quality

  Air Quality AQ Index Pollutant
Not available.

Snow Depth

Station Depth Elevation

Earthquake Activity

City Distance Mag. Time & Date
Minimum magnitude displayed is 2.5.

Coastal Water Temperatures

Place Temperature

Stations

Nearby Weather Stations

Station Location Temp. Windchill Dew Point Humidity Wind Precip. Elev Updated Type
                   

Watches & Warnings

There are currently no watches in effect.